createdAt,value
2022-07-29T00:04:22.498Z,17.62
2022-07-29T00:09:25.704Z,17.65
2022-07-29T00:14:30.759Z,17.64
2022-07-29T00:19:35.176Z,17.60
2022-07-29T00:24:38.601Z,17.54
2022-07-29T00:29:42.958Z,17.50
2022-07-29T00:35:03.590Z,17.44
2022-07-29T00:40:07.674Z,17.40
2022-07-29T00:45:13.363Z,17.33
2022-07-29T00:50:17.031Z,17.29
2022-07-29T00:55:20.834Z,17.28
2022-07-29T01:00:26.760Z,17.28
2022-07-29T01:05:50.811Z,17.30
2022-07-29T01:10:54.345Z,17.30
2022-07-29T01:16:05.530Z,17.26
2022-07-29T01:21:51.894Z,17.20
2022-07-29T01:27:00.981Z,17.12
2022-07-29T01:32:18.051Z,17.07
2022-07-29T01:37:34.244Z,17.04
2022-07-29T01:42:40.677Z,16.95
2022-07-29T01:47:48.853Z,16.92
2022-07-29T01:52:56.519Z,16.87
2022-07-29T01:58:02.091Z,16.78
2022-07-29T02:03:11.042Z,16.71
2022-07-29T02:08:15.346Z,16.60
2022-07-29T02:13:20.135Z,16.60
2022-07-29T02:18:27.548Z,16.55
2022-07-29T02:23:51.599Z,16.51
2022-07-29T02:28:58.465Z,16.51
2022-07-29T02:34:05.417Z,16.47
2022-07-29T02:39:12.210Z,16.42
2022-07-29T02:44:17.974Z,16.42
2022-07-29T02:49:32.121Z,16.41
2022-07-29T02:54:41.627Z,16.36
2022-07-29T02:59:47.262Z,16.33
2022-07-29T03:04:53.512Z,16.32
2022-07-29T03:09:56.876Z,16.28
2022-07-29T03:15:01.697Z,16.23
2022-07-29T03:20:08.596Z,16.20
2022-07-29T03:25:13.025Z,16.14
2022-07-29T03:30:21.935Z,15.99
2022-07-29T03:35:27.053Z,15.97
2022-07-29T03:40:35.236Z,15.94
2022-07-29T03:45:39.329Z,15.88
2022-07-29T03:50:44.068Z,15.85
2022-07-29T03:55:50.578Z,15.79
2022-07-29T04:00:54.241Z,15.77
2022-07-29T04:06:03.443Z,15.75
2022-07-29T04:11:07.589Z,15.74
2022-07-29T04:16:10.794Z,15.74
2022-07-29T04:21:15.661Z,15.74
2022-07-29T04:26:18.965Z,15.76
2022-07-29T04:31:25.702Z,15.75
2022-07-29T04:36:30.572Z,15.77
2022-07-29T04:41:33.863Z,15.77
2022-07-29T04:46:37.894Z,15.82
2022-07-29T04:51:42.275Z,15.90
2022-07-29T04:56:45.261Z,15.96
2022-07-29T05:01:48.180Z,16.06
2022-07-29T05:06:52.893Z,16.17
2022-07-29T05:11:55.978Z,16.24
2022-07-29T05:17:01.159Z,16.27
2022-07-29T05:22:05.566Z,16.35
2022-07-29T05:27:08.572Z,16.43
2022-07-29T05:32:11.534Z,16.56
2022-07-29T05:37:16.336Z,16.63
2022-07-29T05:42:19.260Z,16.61
2022-07-29T05:47:23.067Z,16.60
2022-07-29T05:52:27.681Z,16.57
2022-07-29T05:57:31.033Z,16.56
2022-07-29T06:02:34.158Z,16.57
2022-07-29T06:07:38.453Z,16.65
2022-07-29T06:12:52.615Z,16.76
2022-07-29T06:17:59.773Z,16.89
2022-07-29T06:23:05.831Z,17.06
2022-07-29T06:28:09.593Z,17.31
2022-07-29T06:33:18.960Z,17.59
2022-07-29T06:38:31.056Z,17.59
2022-07-29T06:43:50.465Z,17.62
2022-07-29T06:48:55.924Z,17.75
2022-07-29T06:54:02.879Z,17.75
2022-07-29T06:59:07.330Z,17.83
2022-07-29T07:04:12.474Z,17.82
2022-07-29T07:09:16.856Z,17.93
2022-07-29T07:14:20.304Z,17.99
2022-07-29T07:19:23.646Z,18.08
2022-07-29T07:24:28.064Z,18.32
2022-07-29T07:29:31.101Z,18.46
2022-07-29T07:34:34.097Z,18.63
2022-07-29T07:39:38.681Z,18.91
2022-07-29T07:45:03.732Z,19.60
2022-07-29T07:50:05.866Z,19.86
2022-07-29T07:55:11.048Z,19.79
2022-07-29T08:00:15.763Z,19.64
2022-07-29T08:05:18.981Z,19.74
2022-07-29T08:10:37.206Z,19.91
2022-07-29T08:15:41.977Z,20.05
2022-07-29T08:20:44.903Z,20.19
2022-07-29T08:25:50.291Z,20.19
2022-07-29T08:30:53.629Z,20.57
2022-07-29T08:35:57.026Z,20.59
2022-07-29T08:41:02.988Z,20.91
2022-07-29T08:46:06.095Z,21.15
2022-07-29T08:51:09.756Z,21.41
2022-07-29T08:56:17.813Z,21.63
2022-07-29T09:01:35.268Z,21.98
2022-07-29T09:06:47.342Z,22.49
2022-07-29T09:11:52.363Z,22.42
2022-07-29T09:16:57.969Z,22.50
2022-07-29T09:22:03.905Z,22.87
2022-07-29T09:27:19.998Z,23.12
2022-07-29T09:32:23.204Z,23.63
2022-07-29T09:37:30.083Z,23.94
2022-07-29T09:42:34.858Z,24.79
2022-07-29T09:47:48.122Z,25.35
2022-07-29T09:52:54.317Z,25.87
2022-07-29T09:58:17.402Z,25.52
2022-07-29T10:03:20.813Z,25.57
2022-07-29T10:08:28.027Z,25.98
2022-07-29T10:13:32.581Z,25.95
2022-07-29T10:18:36.503Z,26.10
2022-07-29T10:23:46.393Z,26.30
2022-07-29T10:28:51.719Z,26.26
2022-07-29T10:34:07.434Z,26.59
2022-07-29T10:39:22.392Z,26.62
2022-07-29T10:44:28.683Z,26.82
2022-07-29T10:49:31.910Z,27.04
2022-07-29T10:54:51.086Z,26.68
2022-07-29T11:00:32.940Z,27.10
2022-07-29T11:05:59.382Z,27.27
2022-07-29T11:11:33.485Z,27.18
2022-07-29T11:17:06.023Z,27.35
2022-07-29T11:22:10.922Z,27.41
2022-07-29T11:27:17.848Z,27.43
2022-07-29T11:32:24.154Z,27.78
2022-07-29T11:37:28.273Z,28.11
2022-07-29T11:42:46.393Z,28.22
2022-07-29T11:47:53.789Z,28.26
2022-07-29T11:52:57.144Z,28.44
2022-07-29T11:58:03.857Z,28.12
2022-07-29T12:03:10.544Z,28.12
2022-07-29T12:08:17.377Z,28.33
2022-07-29T12:13:22.183Z,28.61
2022-07-29T12:18:27.025Z,28.41
2022-07-29T12:23:35.134Z,28.78
2022-07-29T12:28:39.463Z,28.90
2022-07-29T12:33:44.466Z,28.73
2022-07-29T12:38:48.025Z,28.87
2022-07-29T12:43:55.749Z,29.15
2022-07-29T12:49:00.220Z,28.88
2022-07-29T12:54:08.240Z,28.98
2022-07-29T12:59:17.814Z,29.20
2022-07-29T13:04:29.468Z,29.27
2022-07-29T13:09:39.993Z,29.23
2022-07-29T13:14:44.675Z,29.55
2022-07-29T13:19:51.434Z,29.40
2022-07-29T13:24:56.910Z,29.29
2022-07-29T13:30:01.752Z,29.51
2022-07-29T13:35:08.094Z,28.98
2022-07-29T13:40:12.819Z,28.93
2022-07-29T13:45:16.045Z,29.02
2022-07-29T13:50:20.404Z,29.01
2022-07-29T13:55:23.562Z,29.29
2022-07-29T14:00:27.194Z,29.24
2022-07-29T14:05:31.793Z,29.16
2022-07-29T14:10:34.959Z,29.50
2022-07-29T14:15:39.339Z,29.76
2022-07-29T14:20:44.384Z,29.87
2022-07-29T14:25:47.567Z,29.86
2022-07-29T14:30:52.518Z,30.10
2022-07-29T14:35:57.126Z,30.04
2022-07-29T14:41:04.347Z,29.33
2022-07-29T14:46:08.634Z,29.53
2022-07-29T14:51:13.241Z,29.47
2022-07-29T14:56:35.986Z,29.66
2022-07-29T15:01:39.123Z,29.38
2022-07-29T15:06:44.144Z,29.60
2022-07-29T15:11:47.222Z,29.68
2022-07-29T15:16:50.550Z,29.28
2022-07-29T15:21:59.739Z,29.41
2022-07-29T15:27:02.931Z,28.77
2022-07-29T15:32:06.744Z,28.74
2022-07-29T15:37:12.091Z,28.55
2022-07-29T15:42:15.213Z,28.47
2022-07-29T15:47:20.903Z,28.29
2022-07-29T15:52:26.598Z,28.32
2022-07-29T15:57:31.719Z,28.44
2022-07-29T16:02:34.642Z,28.49
2022-07-29T16:07:39.305Z,28.56
2022-07-29T16:12:42.597Z,28.60
2022-07-29T16:17:45.523Z,28.94
2022-07-29T16:22:49.927Z,29.04
2022-07-29T16:27:55.068Z,28.92
2022-07-29T16:33:04.160Z,29.03
2022-07-29T16:38:11.189Z,29.12
2022-07-29T16:43:14.559Z,29.31
2022-07-29T16:48:18.163Z,29.76
2022-07-29T16:53:27.167Z,29.24
2022-07-29T16:58:33.161Z,28.80
2022-07-29T17:03:36.179Z,28.34
2022-07-29T17:08:40.753Z,28.05
2022-07-29T17:13:43.919Z,28.10
2022-07-29T17:18:46.912Z,27.72
2022-07-29T17:23:52.200Z,27.74
2022-07-29T17:28:55.317Z,27.48
2022-07-29T17:34:00.089Z,27.20
2022-07-29T17:39:07.106Z,27.03
2022-07-29T17:44:10.480Z,26.79
2022-07-29T17:49:13.724Z,26.81
2022-07-29T17:54:18.976Z,26.66
2022-07-29T17:59:22.153Z,26.53
2022-07-29T18:04:25.490Z,26.46
2022-07-29T18:09:31.433Z,26.26
2022-07-29T18:14:35.158Z,26.16
2022-07-29T18:19:38.583Z,26.06
2022-07-29T18:24:43.336Z,26.02
2022-07-29T18:29:46.357Z,25.75
2022-07-29T18:34:54.141Z,25.43
2022-07-29T18:39:59.658Z,25.21
2022-07-29T18:45:02.766Z,25.06
2022-07-29T18:50:08.302Z,24.98
2022-07-29T18:55:12.814Z,24.70
2022-07-29T19:00:16.375Z,24.50
2022-07-29T19:05:19.784Z,24.36
2022-07-29T19:10:24.375Z,24.03
2022-07-29T19:15:27.705Z,23.81
2022-07-29T19:20:30.860Z,23.53
2022-07-29T19:25:35.749Z,23.38
2022-07-29T19:30:39.075Z,23.22
2022-07-29T19:35:42.284Z,23.14
2022-07-29T19:40:46.623Z,22.92
2022-07-29T19:45:49.551Z,22.69
2022-07-29T19:50:52.511Z,22.42
2022-07-29T19:55:56.938Z,22.26
2022-07-29T20:01:00.405Z,22.15
2022-07-29T20:06:03.387Z,21.92
2022-07-29T20:11:08.038Z,21.72
2022-07-29T20:16:11.082Z,21.59
2022-07-29T20:21:14.214Z,21.39
2022-07-29T20:26:18.474Z,21.17
2022-07-29T20:31:21.867Z,21.03
2022-07-29T20:36:25.005Z,20.90
2022-07-29T20:41:29.851Z,20.86
2022-07-29T20:46:32.871Z,20.65
2022-07-29T20:51:43.826Z,20.51
2022-07-29T20:56:48.667Z,20.44
2022-07-29T21:01:51.646Z,20.34
2022-07-29T21:06:54.689Z,20.23
2022-07-29T21:12:00.772Z,20.16
2022-07-29T21:17:05.924Z,20.15
2022-07-29T21:22:08.978Z,20.16
2022-07-29T21:27:30.758Z,20.03
2022-07-29T21:32:33.872Z,19.90
2022-07-29T21:37:37.136Z,19.89
2022-07-29T21:42:41.858Z,19.85
2022-07-29T21:47:48.443Z,19.77
2022-07-29T21:52:51.350Z,19.71
2022-07-29T21:57:56.017Z,19.68
2022-07-29T22:02:58.955Z,19.52
2022-07-29T22:08:02.556Z,19.50
2022-07-29T22:13:07.006Z,19.49
2022-07-29T22:18:10.076Z,19.38
2022-07-29T22:23:13.070Z,19.31
2022-07-29T22:28:17.431Z,19.30
2022-07-29T22:33:20.437Z,19.25
2022-07-29T22:38:23.612Z,19.21
2022-07-29T22:43:28.005Z,19.17
2022-07-29T22:48:31.306Z,19.10
2022-07-29T22:53:34.494Z,19.04
2022-07-29T22:58:38.805Z,18.96
2022-07-29T23:03:42.346Z,18.91
2022-07-29T23:08:54.440Z,18.80
2022-07-29T23:13:58.786Z,18.73
2022-07-29T23:19:01.794Z,18.64
2022-07-29T23:24:05.109Z,18.57
2022-07-29T23:29:09.402Z,18.50
2022-07-29T23:34:12.343Z,18.40
2022-07-29T23:39:15.668Z,18.30
2022-07-29T23:44:20.248Z,18.29
2022-07-29T23:49:23.375Z,18.17
2022-07-29T23:54:26.602Z,18.11
2022-07-29T23:59:30.936Z,18.06
